Etusivu
METAR-TAF:

METAR-TAF

Lentoasemat :

Walla Walla, Washington, Yhdysvallat

Leveyspiiri: 46-05-42N, Pituuspiiri: 118-17-03W, korkeus merenpinnasta: 367 m

Tämänhetkinen sää

Tämä raportti tehtiin 23 minuuttia sitten, kello 14.53 UTC
Tuuli 7 kn etelästä
Lämpötila 8°C
Kosteus 61%
Ilmanpaine 1018 hPa
Näkyvyys: 16.1 km
selkeää

METAR: KALW 141453Z 17007KT 10SM CLR 08/01 A3007 RMK AO2 SLP185 T00830011 53015

Aika: 08:16 (15:16 UTC)

Sääennuste

Tämä raportti tehtiin 3 tuntia ja 48 minuuttia sitten, kello 11.28 UTC
Ennuste voimassa 14. päivästä klo 12 UTC - 15. päivään klo 12 UTC
Tuuli 5 kn etelästä/kaakosta
Näkyvyys: 10 km
Pilvistä 6000 ft:n korkeudessa
From 14. päivästä klo 1500 UTC
Tuuli 6 kn lounaasta
Näkyvyys: 10 km
Hajonneita pilviä 25000 ft:n korkeudessa
From 14. päivästä klo 2300 UTC
Tuuli 5 kn kaakosta
Näkyvyys: 10 km
Hajanaisia pilviä 25000 ft:n korkeudessa

TAF: KALW 141128Z 1412/1512 15005KT P6SM OVC060 FM141500 23006KT P6SM BKN250 FM142300 14005KT P6SM SCT250

Säähavainnot ja -ennusteet yli 4000 lentoasemalta (METAR- ja TAF-raportit).

Käytössä olevat sääasemat on merkitty karttaan keltaisilla ja punaisilla pisteillä.

Aseta hiiri pisteen päälle nähdäksesi sääaseman nimen.

Klikkaa sitten nähdäksesi säähavainnot ja -ennusteet.

Kartan vaihtaminen: klikkaa mustalla rastilla varustettuja vihreitä pisteitä, niin voit zoomata sisään; viivalla varustettua vihreää pistettä, niin voit zoomata ulos tai vihreitä nuolia, niin pääset viereisille kartoille.


METAR-TAF: